Meera — V2FD7 — position and weather

sailwx.info

Track history (hours):
 
Tides and Currents Weather Stations Pressure Air Temp Water Temp Dewpoint Dewpoint Depression Visibility Wind Speed Wind Dir Waves Ship Positions

Meera

Last reported at 2018-Jun-16 23:17 UTC. Time now 2018-Jun-18 03:37 UTC.
Position N 33°44' W 007°44'.

Length 140 m; draft 6.7 m.

Type: Ship (hazmat cat A). MMSI: 305643000.

Date/timePositionNaut miles runAvg speedWind from/ knotsBaromVisibWave heightAir tempDewpointWater temp
2018-Jun-16 23:17N 33°44' W 007°44'3316.4
2018-Jun-16 21:14N 33°34' W 008°22'37414.7
2018-Jun-15 19:45N 29°30' W 013°54'414.3
2018-Jun-15 19:30N 29°27' W 013°57'714.5
2018-Jun-15 19:00N 29°21' W 014°01'814.7
2018-Jun-15 18:28N 29°14' W 014°06'814.8
2018-Jun-15 17:57N 29°08' W 014°12'714.9
2018-Jun-15 17:30N 29°03' W 014°17'815.2
2018-Jun-15 17:00N 28°58' W 014°23'814.9
2018-Jun-15 16:28N 28°52' W 014°30'714.9
2018-Jun-15 16:00N 28°47' W 014°35'815.0
2018-Jun-15 15:30N 28°42' W 014°41'714.9
2018-Jun-15 15:00N 28°37' W 014°47'714.8
2018-Jun-15 14:30N 28°32' W 014°53'714.9
2018-Jun-15 14:00N 28°27' W 014°59'714.8
2018-Jun-15 13:30N 28°22' W 015°05'815.0
2018-Jun-15 13:00N 28°16' W 015°12'715.0
2018-Jun-15 12:30N 28°11' W 015°18'714.0
2018-Jun-15 12:00N 28°07' W 015°24'2 2.5
2018-Jun-15 11:22N 28°09' W 015°25'0 0.0
2018-Jun-15 10:52N 28°09' W 015°25'0 0.0
2018-Jun-15 10:22N 28°09' W 015°25'0 0.0
2018-Jun-15 09:52N 28°09' W 015°25'0 0.0
2018-Jun-15 09:22N 28°09' W 015°25'0 0.0
2018-Jun-15 08:52N 28°09' W 015°25'0 0.0
2018-Jun-15 08:22N 28°09' W 015°25'0 0.0
2018-Jun-15 07:55N 28°09' W 015°25'0 0.0
2018-Jun-15 07:25N 28°09' W 015°25'0 0.0
2018-Jun-15 06:55N 28°09' W 015°25'0 0.0
2018-Jun-15 06:25N 28°09' W 015°25'0 0.0
2018-Jun-15 05:55N 28°09' W 015°25'0 0.0
2018-Jun-15 05:28N 28°09' W 015°25'0 0.0
2018-Jun-15 04:58N 28°09' W 015°25'0 0.0
2018-Jun-15 04:28N 28°09' W 015°25'0 0.0
2018-Jun-15 03:58N 28°09' W 015°25'0 0.0
2018-Jun-15 03:28N 28°09' W 015°25'0 1.0
2018-Jun-15 03:00N 28°08' W 015°25'2 3.7
2018-Jun-15 02:30N 28°07' W 015°23'510.8
2018-Jun-15 02:00N 28°12' W 015°21'815.1
2018-Jun-15 01:30N 28°14' W 015°29'815.1
2018-Jun-15 01:00N 28°15' W 015°38'815.1
2018-Jun-15 00:30N 28°16' W 015°46'815.4
2018-Jun-15 00:00N 28°18' W 015°55'816.0
2018-Jun-14 23:30N 28°21' W 016°03'816.8
2018-Jun-14 23:00N 28°26' W 016°11'4 7.3
2018-Jun-14 22:28N 28°29' W 016°13'0 0.0
2018-Jun-14 21:58N 28°29' W 016°13'0 0.0
2018-Jun-14 21:28N 28°29' W 016°13'0 0.0
2018-Jun-14 20:58N 28°29' W 016°13'0 0.0
2018-Jun-14 20:28N 28°29' W 016°13'0 0.0
2018-Jun-14 19:58N 28°29' W 016°13'0 0.0
2018-Jun-14 19:28N 28°29' W 016°13'0 0.0
2018-Jun-14 18:58N 28°29' W 016°13'0 0.0
2018-Jun-14 18:28N 28°29' W 016°13'0 0.0
2018-Jun-14 17:58N 28°29' W 016°13'0 0.0
2018-Jun-14 17:29N 28°29' W 016°13'1 1.7
2018-Jun-14 17:00N 28°29' W 016°14'612.7
2018-Jun-14 16:31N 28°27' W 016°07'815.6
2018-Jun-14 16:00N 28°26' W 015°58'816.6
2018-Jun-14 15:30N 28°32' W 015°51'917.0
2018-Jun-14 15:00N 28°38' W 015°45'816.7
2018-Jun-14 14:31N 28°46' W 015°41'816.7
2018-Jun-14 14:00N 28°54' W 015°39'816.7
2018-Jun-14 13:30N 29°02' W 015°36'816.8
2018-Jun-14 13:01N 29°10' W 015°33'1216.9
2018-Jun-14 12:18N 29°21' W 015°28'4216.7
2018-Jun-14 09:49N 30°00' W 015°11'1516.3
2018-Jun-14 08:55N 30°14' W 015°06'1316.6
2018-Jun-14 08:09N 30°27' W 015°02'916.8
2018-Jun-14 07:38N 30°35' W 014°60'32716.6
2018-Jun-13 11:58N 35°44' W 012°53'19616.6
2018-Jun-13 00:12N 38°49' W 011°32'716.9
2018-Jun-12 23:46N 38°55' W 011°29'616.8
2018-Jun-12 23:25N 39°01' W 011°27'61016.4
2018-Jun-11 10:07N 48°27' W 006°10'216.3
2018-Jun-11 10:00N 48°28' W 006°09'1016.5
2018-Jun-11 09:25N 48°37' W 006°02'816.8
2018-Jun-11 08:55N 48°44' W 005°55'717.1
2018-Jun-11 08:30N 48°50' W 005°50'816.8
2018-Jun-11 08:00N 48°55' W 005°40'1017.5
2018-Jun-11 07:26N 49°00' W 005°27'717.6
2018-Jun-11 07:00N 49°04' W 005°17'7516.2
2018-Jun-11 02:21N 49°42' W 003°37'815.7
2018-Jun-11 01:50N 49°46' W 003°26'516.4
2018-Jun-11 01:30N 49°49' W 003°19'816.9
2018-Jun-11 01:00N 49°53' W 003°07'917.6
2018-Jun-11 00:30N 49°57' W 002°55'3318.6
2018-Jun-10 22:45N 50°07' W 002°07'519.3
2018-Jun-10 22:30N 50°09' W 001°60'1019.0
2018-Jun-10 22:00N 50°12' W 001°46'2218.0
2018-Jun-10 20:47N 50°18' W 001°13'516.9
2018-Jun-10 20:30N 50°19' W 001°05'816.2
2018-Jun-10 20:00N 50°21' W 000°53'815.4
2018-Jun-10 19:30N 50°24' W 000°42'814.9
2018-Jun-10 18:59N 50°26' W 000°30'714.9
2018-Jun-10 18:30N 50°28' W 000°19'814.9
2018-Jun-10 17:58N 50°30' W 000°07'714.9
2018-Jun-10 17:30N 50°31' E 000°03'815.1
2018-Jun-10 16:58N 50°34' E 000°16'715.6
2018-Jun-10 16:30N 50°36' E 000°27'816.2
2018-Jun-10 16:00N 50°38' E 000°38'917.2
2018-Jun-10 15:30N 50°43' E 000°50'918.1
2018-Jun-10 15:00N 50°49' E 001°00'1918.5
2018-Jun-10 14:00N 51°01' E 001°23'918.0
2018-Jun-10 13:30N 51°07' E 001°34'816.0
2018-Jun-10 13:01N 51°14' E 001°39'815.7
2018-Jun-10 12:30N 51°22' E 001°36'713.0
2018-Jun-10 12:00N 51°26' E 001°28'916.4
2018-Jun-10 11:29N 51°29' E 001°15'15 1.1
2018-Jun-09 22:38N 51°30' E 000°52'714.8
2018-Jun-09 22:12N 51°30' E 001°02'613.6
2018-Jun-09 21:44N 51°29' E 001°12'415.7
2018-Jun-09 21:31N 51°29' E 001°18'714.7
2018-Jun-09 21:01N 51°27' E 001°29'3 5.6
2018-Jun-09 20:31N 51°28' E 001°33'5 9.4
2018-Jun-09 20:00N 51°30' E 001°39'5 9.8
2018-Jun-09 19:30N 51°32' E 001°47'714.1
2018-Jun-09 19:00N 51°34' E 001°57'916.7
2018-Jun-09 18:30N 51°39' E 002°09'816.9
2018-Jun-09 18:00N 51°44' E 002°19'917.4
2018-Jun-09 17:30N 51°51' E 002°29'917.5
2018-Jun-09 17:00N 51°57' E 002°39'816.1
2018-Jun-09 16:30N 52°01' E 002°50'816.7
2018-Jun-09 16:00N 52°01' E 003°04'816.7
2018-Jun-09 15:30N 52°02' E 003°17'1616.1
2018-Jun-09 14:30N 52°03' E 003°43'713.7
2018-Jun-09 14:00N 52°02' E 003°55'714.2
2018-Jun-09 13:31N 51°59' E 004°05'713.6
2018-Jun-09 13:00N 51°55' E 004°14'510.0
2018-Jun-09 12:30N 51°54' E 004°22'2 4.7
2018-Jun-09 12:00N 51°53' E 004°25'0 0.0
2018-Jun-09 11:30N 51°53' E 004°25'0 0.0
2018-Jun-09 11:00N 51°53' E 004°25'0 0.0
2018-Jun-09 10:30N 51°53' E 004°25'0 0.0
2018-Jun-09 10:00N 51°53' E 004°25'0 0.0
2018-Jun-09 09:30N 51°53' E 004°25'0 0.0
2018-Jun-09 09:00N 51°53' E 004°25'0 0.0
2018-Jun-09 08:30N 51°53' E 004°25'0 0.0
2018-Jun-09 08:00N 51°53' E 004°25'0 0.0
2018-Jun-09 07:30N 51°53' E 004°25'0 0.0
2018-Jun-09 07:00N 51°53' E 004°25'0 0.0
2018-Jun-09 06:30N 51°53' E 004°25'0 0.0
2018-Jun-09 06:00N 51°53' E 004°25'0 0.0
2018-Jun-09 05:30N 51°53' E 004°25'0 0.0
2018-Jun-09 05:00N 51°53' E 004°25'0 0.0
2018-Jun-09 04:30N 51°53' E 004°25'0 0.0
2018-Jun-09 04:00N 51°53' E 004°25'0 0.0
2018-Jun-09 03:30N 51°53' E 004°25'0 0.0
2018-Jun-09 03:00N 51°53' E 004°25'0 0.0
2018-Jun-09 02:30N 51°53' E 004°25'0 0.0
2018-Jun-09 02:00N 51°53' E 004°25'0 0.0
2018-Jun-09 01:30N 51°53' E 004°25'0 0.0
2018-Jun-09 00:57N 51°53' E 004°25'0 0.0
2018-Jun-09 00:30N 51°53' E 004°25'0 0.0
2018-Jun-09 00:00N 51°53' E 004°25'0 0.0
2018-Jun-08 23:30N 51°53' E 004°25'0 0.0
2018-Jun-08 23:00N 51°53' E 004°25'0 0.0
2018-Jun-08 22:30N 51°53' E 004°25'0 0.0
2018-Jun-08 22:00N 51°53' E 004°25'0 0.0
2018-Jun-08 21:30N 51°53' E 004°25'0 0.0
2018-Jun-08 21:00N 51°53' E 004°25'0 0.0
2018-Jun-08 20:30N 51°53' E 004°25'0 0.0
2018-Jun-08 20:00N 51°53' E 004°25'0 0.0
2018-Jun-08 19:30N 51°53' E 004°25'0 0.0
2018-Jun-08 19:00N 51°53' E 004°25'0 0.0
2018-Jun-08 18:30N 51°53' E 004°25'0 0.0
2018-Jun-08 18:00N 51°53' E 004°25'0 0.2
2018-Jun-08 17:30N 51°53' E 004°25'0 0.7
2018-Jun-08 17:00N 51°53' E 004°25'3 5.7
2018-Jun-08 16:30N 51°54' E 004°20'5 9.5
2018-Jun-08 16:00N 51°56' E 004°13'510.1
2018-Jun-08 15:30N 51°59' E 004°07'611.2
2018-Jun-08 15:00N 52°00' E 003°58'510.7
2018-Jun-08 14:30N 52°01' E 003°49'510.4
2018-Jun-08 14:00N 52°05' E 003°44'5 9.7
2018-Jun-08 13:30N 52°09' E 003°40'0 0.4
2018-Jun-08 12:56N 52°09' E 003°40'0 0.1
2018-Jun-08 12:29N 52°09' E 003°40'0 0.1
2018-Jun-08 11:59N 52°09' E 003°40'0 0.1
2018-Jun-08 11:26N 52°10' E 003°40'0 0.0
2018-Jun-08 10:59N 52°10' E 003°40'0 0.0
2018-Jun-08 10:30N 52°10' E 003°40'0 0.0
2018-Jun-08 10:00N 52°10' E 003°40'0 0.0
2018-Jun-08 09:30N 52°10' E 003°40'0 0.2
2018-Jun-08 09:00N 52°10' E 003°40'0 0.1
2018-Jun-08 08:30N 52°09' E 003°40'0 0.0
2018-Jun-08 08:00N 52°09' E 003°40'1 2.1
2018-Jun-08 07:30N 52°10' E 003°41'816.2
2018-Jun-08 07:00N 52°17' E 003°47'816.6
2018-Jun-08 06:30N 52°25' E 003°49'817.0
2018-Jun-08 06:00N 52°34' E 003°51'916.8
2018-Jun-08 05:30N 52°42' E 003°54'816.9
2018-Jun-08 05:00N 52°50' E 003°57'816.8
2018-Jun-08 04:30N 52°58' E 004°02'817.0
2018-Jun-08 04:00N 53°04' E 004°11'816.6
2018-Jun-08 03:30N 53°10' E 004°21'816.3
2018-Jun-08 03:00N 53°17' E 004°28'816.1
2018-Jun-08 02:30N 53°24' E 004°35'815.1
2018-Jun-08 02:00N 53°30' E 004°42'815.4
2018-Jun-08 01:31N 53°33' E 004°54'815.5
2018-Jun-08 01:00N 53°36' E 005°06'815.8
2018-Jun-08 00:30N 53°39' E 005°19'815.8
2018-Jun-08 00:00N 53°41' E 005°31'815.9
2018-Jun-07 23:30N 53°44' E 005°44'815.9
2018-Jun-07 23:00N 53°46' E 005°57'816.1
2018-Jun-07 22:29N 53°48' E 006°10'7216.9
2018-Jun-07 18:13N 54°00' E 008°11'313.3
2018-Jun-07 18:00N 53°60' E 008°16'816.9
2018-Jun-07 17:30N 53°58' E 008°30'714.7
2018-Jun-07 17:01N 53°55' E 008°41'612.3
2018-Jun-07 16:30N 53°50' E 008°49'612.9
2018-Jun-07 16:00N 53°51' E 008°59'612.0
2018-Jun-07 15:30N 53°53' E 009°09'611.2
2018-Jun-07 15:00N 53°51' E 009°18'714.4
2018-Jun-07 14:30N 53°45' E 009°24'713.5
2018-Jun-07 14:00N 53°40' E 009°31'713.6
2018-Jun-07 13:30N 53°35' E 009°38'613.0
2018-Jun-07 13:00N 53°33' E 009°49'4 6.7
2018-Jun-07 12:29N 53°32' E 009°55'0 0.0
2018-Jun-07 11:59N 53°32' E 009°55'0 0.0
2018-Jun-07 11:29N 53°32' E 009°55'0 0.0
2018-Jun-07 10:59N 53°32' E 009°55'0 0.0
2018-Jun-07 10:29N 53°32' E 009°55'0 0.0
2018-Jun-07 09:59N 53°32' E 009°55'0 0.0
2018-Jun-07 09:29N 53°32' E 009°55'0 0.0
2018-Jun-07 08:59N 53°32' E 009°55'0 0.0
2018-Jun-07 08:29N 53°32' E 009°55'0 0.0
2018-Jun-07 07:59N 53°32' E 009°55'0 0.0
2018-Jun-07 07:29N 53°32' E 009°55'0 0.0
2018-Jun-07 06:59N 53°32' E 009°55'0 0.0
2018-Jun-07 06:29N 53°32' E 009°55'0 0.0
2018-Jun-07 05:59N 53°32' E 009°55'0 0.0
2018-Jun-07 05:29N 53°32' E 009°55'0 0.6
2018-Jun-07 05:00N 53°32' E 009°55'2 4.4
2018-Jun-07 04:29N 53°32' E 009°59'0 0.0
2018-Jun-07 03:59N 53°32' E 009°59'0 0.0
2018-Jun-07 03:29N 53°32' E 009°59'0 0.0
2018-Jun-07 02:59N 53°32' E 009°59'0 0.0
2018-Jun-07 02:29N 53°32' E 009°59'0 0.0
2018-Jun-07 01:59N 53°32' E 009°59'0 0.0
2018-Jun-07 01:29N 53°32' E 009°59'0 0.0
2018-Jun-07 00:59N 53°32' E 009°59'0 0.0
2018-Jun-07 00:29N 53°32' E 009°59'0 0.0
2018-Jun-06 23:59N 53°32' E 009°59'0 0.0
2018-Jun-06 23:29N 53°32' E 009°59'  
Track history (hours):
 
Tides and Currents Weather Stations Pressure Air Temp Water Temp Dewpoint Dewpoint Depression Visibility Wind Speed Wind Dir Waves Ship Positions

Meera

Last reported at 2018-Jun-16 23:17 UTC. Time now 2018-Jun-18 03:37 UTC.
Position N 33°44' W 007°44'.

Length 140 m; draft 6.7 m.

Type: Ship (hazmat cat A). MMSI: 305643000.

Date/timePositionNaut miles runAvg speedWind from/ knotsBaromVisibWave heightAir tempDewpointWater temp
2018-Jun-16 23:17N 33°44' W 007°44'3316.4
2018-Jun-16 21:14N 33°34' W 008°22'37414.7
2018-Jun-15 19:45N 29°30' W 013°54'414.3
2018-Jun-15 19:30N 29°27' W 013°57'714.5
2018-Jun-15 19:00N 29°21' W 014°01'814.7
2018-Jun-15 18:28N 29°14' W 014°06'814.8
2018-Jun-15 17:57N 29°08' W 014°12'714.9
2018-Jun-15 17:30N 29°03' W 014°17'815.2
2018-Jun-15 17:00N 28°58' W 014°23'814.9
2018-Jun-15 16:28N 28°52' W 014°30'714.9
2018-Jun-15 16:00N 28°47' W 014°35'815.0
2018-Jun-15 15:30N 28°42' W 014°41'714.9
2018-Jun-15 15:00N 28°37' W 014°47'714.8
2018-Jun-15 14:30N 28°32' W 014°53'714.9
2018-Jun-15 14:00N 28°27' W 014°59'714.8
2018-Jun-15 13:30N 28°22' W 015°05'815.0
2018-Jun-15 13:00N 28°16' W 015°12'715.0
2018-Jun-15 12:30N 28°11' W 015°18'714.0
2018-Jun-15 12:00N 28°07' W 015°24'2 2.5
2018-Jun-15 11:22N 28°09' W 015°25'0 0.0
2018-Jun-15 10:52N 28°09' W 015°25'0 0.0
2018-Jun-15 10:22N 28°09' W 015°25'0 0.0
2018-Jun-15 09:52N 28°09' W 015°25'0 0.0
2018-Jun-15 09:22N 28°09' W 015°25'0 0.0
2018-Jun-15 08:52N 28°09' W 015°25'0 0.0
2018-Jun-15 08:22N 28°09' W 015°25'0 0.0
2018-Jun-15 07:55N 28°09' W 015°25'0 0.0
2018-Jun-15 07:25N 28°09' W 015°25'0 0.0
2018-Jun-15 06:55N 28°09' W 015°25'0 0.0
2018-Jun-15 06:25N 28°09' W 015°25'0 0.0
2018-Jun-15 05:55N 28°09' W 015°25'0 0.0
2018-Jun-15 05:28N 28°09' W 015°25'0 0.0
2018-Jun-15 04:58N 28°09' W 015°25'0 0.0
2018-Jun-15 04:28N 28°09' W 015°25'0 0.0
2018-Jun-15 03:58N 28°09' W 015°25'0 0.0
2018-Jun-15 03:28N 28°09' W 015°25'0 1.0
2018-Jun-15 03:00N 28°08' W 015°25'2 3.7
2018-Jun-15 02:30N 28°07' W 015°23'510.8
2018-Jun-15 02:00N 28°12' W 015°21'815.1
2018-Jun-15 01:30N 28°14' W 015°29'815.1
2018-Jun-15 01:00N 28°15' W 015°38'815.1
2018-Jun-15 00:30N 28°16' W 015°46'815.4
2018-Jun-15 00:00N 28°18' W 015°55'816.0
2018-Jun-14 23:30N 28°21' W 016°03'816.8
2018-Jun-14 23:00N 28°26' W 016°11'4 7.3
2018-Jun-14 22:28N 28°29' W 016°13'0 0.0
2018-Jun-14 21:58N 28°29' W 016°13'0 0.0
2018-Jun-14 21:28N 28°29' W 016°13'0 0.0
2018-Jun-14 20:58N 28°29' W 016°13'0 0.0
2018-Jun-14 20:28N 28°29' W 016°13'0 0.0
2018-Jun-14 19:58N 28°29' W 016°13'0 0.0
2018-Jun-14 19:28N 28°29' W 016°13'0 0.0
2018-Jun-14 18:58N 28°29' W 016°13'0 0.0
2018-Jun-14 18:28N 28°29' W 016°13'0 0.0
2018-Jun-14 17:58N 28°29' W 016°13'0 0.0
2018-Jun-14 17:29N 28°29' W 016°13'1 1.7
2018-Jun-14 17:00N 28°29' W 016°14'612.7
2018-Jun-14 16:31N 28°27' W 016°07'815.6
2018-Jun-14 16:00N 28°26' W 015°58'816.6
2018-Jun-14 15:30N 28°32' W 015°51'917.0
2018-Jun-14 15:00N 28°38' W 015°45'816.7
2018-Jun-14 14:31N 28°46' W 015°41'816.7
2018-Jun-14 14:00N 28°54' W 015°39'816.7
2018-Jun-14 13:30N 29°02' W 015°36'816.8
2018-Jun-14 13:01N 29°10' W 015°33'1216.9
2018-Jun-14 12:18N 29°21' W 015°28'4216.7
2018-Jun-14 09:49N 30°00' W 015°11'1516.3
2018-Jun-14 08:55N 30°14' W 015°06'1316.6
2018-Jun-14 08:09N 30°27' W 015°02'916.8
2018-Jun-14 07:38N 30°35' W 014°60'32716.6
2018-Jun-13 11:58N 35°44' W 012°53'19616.6
2018-Jun-13 00:12N 38°49' W 011°32'716.9
2018-Jun-12 23:46N 38°55' W 011°29'616.8
2018-Jun-12 23:25N 39°01' W 011°27'61016.4
2018-Jun-11 10:07N 48°27' W 006°10'216.3
2018-Jun-11 10:00N 48°28' W 006°09'1016.5
2018-Jun-11 09:25N 48°37' W 006°02'816.8
2018-Jun-11 08:55N 48°44' W 005°55'717.1
2018-Jun-11 08:30N 48°50' W 005°50'816.8
2018-Jun-11 08:00N 48°55' W 005°40'1017.5
2018-Jun-11 07:26N 49°00' W 005°27'717.6
2018-Jun-11 07:00N 49°04' W 005°17'7516.2
2018-Jun-11 02:21N 49°42' W 003°37'815.7
2018-Jun-11 01:50N 49°46' W 003°26'516.4
2018-Jun-11 01:30N 49°49' W 003°19'816.9
2018-Jun-11 01:00N 49°53' W 003°07'917.6
2018-Jun-11 00:30N 49°57' W 002°55'3318.6
2018-Jun-10 22:45N 50°07' W 002°07'519.3
2018-Jun-10 22:30N 50°09' W 001°60'1019.0
2018-Jun-10 22:00N 50°12' W 001°46'2218.0
2018-Jun-10 20:47N 50°18' W 001°13'516.9
2018-Jun-10 20:30N 50°19' W 001°05'816.2
2018-Jun-10 20:00N 50°21' W 000°53'815.4
2018-Jun-10 19:30N 50°24' W 000°42'814.9
2018-Jun-10 18:59N 50°26' W 000°30'714.9
2018-Jun-10 18:30N 50°28' W 000°19'814.9
2018-Jun-10 17:58N 50°30' W 000°07'714.9
2018-Jun-10 17:30N 50°31' E 000°03'815.1
2018-Jun-10 16:58N 50°34' E 000°16'715.6
2018-Jun-10 16:30N 50°36' E 000°27'816.2
2018-Jun-10 16:00N 50°38' E 000°38'917.2
2018-Jun-10 15:30N 50°43' E 000°50'918.1
2018-Jun-10 15:00N 50°49' E 001°00'1918.5
2018-Jun-10 14:00N 51°01' E 001°23'918.0
2018-Jun-10 13:30N 51°07' E 001°34'816.0
2018-Jun-10 13:01N 51°14' E 001°39'815.7
2018-Jun-10 12:30N 51°22' E 001°36'713.0
2018-Jun-10 12:00N 51°26' E 001°28'916.4
2018-Jun-10 11:29N 51°29' E 001°15'15 1.1
2018-Jun-09 22:38N 51°30' E 000°52'714.8
2018-Jun-09 22:12N 51°30' E 001°02'613.6
2018-Jun-09 21:44N 51°29' E 001°12'415.7
2018-Jun-09 21:31N 51°29' E 001°18'714.7
2018-Jun-09 21:01N 51°27' E 001°29'3 5.6
2018-Jun-09 20:31N 51°28' E 001°33'5 9.4
2018-Jun-09 20:00N 51°30' E 001°39'5 9.8
2018-Jun-09 19:30N 51°32' E 001°47'714.1
2018-Jun-09 19:00N 51°34' E 001°57'916.7
2018-Jun-09 18:30N 51°39' E 002°09'816.9
2018-Jun-09 18:00N 51°44' E 002°19'917.4
2018-Jun-09 17:30N 51°51' E 002°29'917.5
2018-Jun-09 17:00N 51°57' E 002°39'816.1
2018-Jun-09 16:30N 52°01' E 002°50'816.7
2018-Jun-09 16:00N 52°01' E 003°04'816.7
2018-Jun-09 15:30N 52°02' E 003°17'1616.1
2018-Jun-09 14:30N 52°03' E 003°43'713.7
2018-Jun-09 14:00N 52°02' E 003°55'714.2
2018-Jun-09 13:31N 51°59' E 004°05'713.6
2018-Jun-09 13:00N 51°55' E 004°14'510.0
2018-Jun-09 12:30N 51°54' E 004°22'2 4.7
2018-Jun-09 12:00N 51°53' E 004°25'0 0.0
2018-Jun-09 11:30N 51°53' E 004°25'0 0.0
2018-Jun-09 11:00N 51°53' E 004°25'0 0.0
2018-Jun-09 10:30N 51°53' E 004°25'0 0.0
2018-Jun-09 10:00N 51°53' E 004°25'0 0.0
2018-Jun-09 09:30N 51°53' E 004°25'0 0.0
2018-Jun-09 09:00N 51°53' E 004°25'0 0.0
2018-Jun-09 08:30N 51°53' E 004°25'0 0.0
2018-Jun-09 08:00N 51°53' E 004°25'0 0.0
2018-Jun-09 07:30N 51°53' E 004°25'0 0.0
2018-Jun-09 07:00N 51°53' E 004°25'0 0.0
2018-Jun-09 06:30N 51°53' E 004°25'0 0.0
2018-Jun-09 06:00N 51°53' E 004°25'0 0.0
2018-Jun-09 05:30N 51°53' E 004°25'0 0.0
2018-Jun-09 05:00N 51°53' E 004°25'0 0.0
2018-Jun-09 04:30N 51°53' E 004°25'0 0.0
2018-Jun-09 04:00N 51°53' E 004°25'0 0.0
2018-Jun-09 03:30N 51°53' E 004°25'0 0.0
2018-Jun-09 03:00N 51°53' E 004°25'0 0.0
2018-Jun-09 02:30N 51°53' E 004°25'0 0.0
2018-Jun-09 02:00N 51°53' E 004°25'0 0.0
2018-Jun-09 01:30N 51°53' E 004°25'0 0.0
2018-Jun-09 00:57N 51°53' E 004°25'0 0.0
2018-Jun-09 00:30N 51°53' E 004°25'0 0.0
2018-Jun-09 00:00N 51°53' E 004°25'0 0.0
2018-Jun-08 23:30N 51°53' E 004°25'0 0.0
2018-Jun-08 23:00N 51°53' E 004°25'0 0.0
2018-Jun-08 22:30N 51°53' E 004°25'0 0.0
2018-Jun-08 22:00N 51°53' E 004°25'0 0.0
2018-Jun-08 21:30N 51°53' E 004°25'0 0.0
2018-Jun-08 21:00N 51°53' E 004°25'0 0.0
2018-Jun-08 20:30N 51°53' E 004°25'0 0.0
2018-Jun-08 20:00N 51°53' E 004°25'0 0.0
2018-Jun-08 19:30N 51°53' E 004°25'0 0.0
2018-Jun-08 19:00N 51°53' E 004°25'0 0.0
2018-Jun-08 18:30N 51°53' E 004°25'0 0.0
2018-Jun-08 18:00N 51°53' E 004°25'0 0.2
2018-Jun-08 17:30N 51°53' E 004°25'0 0.7
2018-Jun-08 17:00N 51°53' E 004°25'3 5.7
2018-Jun-08 16:30N 51°54' E 004°20'5 9.5
2018-Jun-08 16:00N 51°56' E 004°13'510.1
2018-Jun-08 15:30N 51°59' E 004°07'611.2
2018-Jun-08 15:00N 52°00' E 003°58'510.7
2018-Jun-08 14:30N 52°01' E 003°49'510.4
2018-Jun-08 14:00N 52°05' E 003°44'5 9.7
2018-Jun-08 13:30N 52°09' E 003°40'0 0.4
2018-Jun-08 12:56N 52°09' E 003°40'0 0.1
2018-Jun-08 12:29N 52°09' E 003°40'0 0.1
2018-Jun-08 11:59N 52°09' E 003°40'0 0.1
2018-Jun-08 11:26N 52°10' E 003°40'0 0.0
2018-Jun-08 10:59N 52°10' E 003°40'0 0.0
2018-Jun-08 10:30N 52°10' E 003°40'0 0.0
2018-Jun-08 10:00N 52°10' E 003°40'0 0.0
2018-Jun-08 09:30N 52°10' E 003°40'0 0.2
2018-Jun-08 09:00N 52°10' E 003°40'0 0.1
2018-Jun-08 08:30N 52°09' E 003°40'0 0.0
2018-Jun-08 08:00N 52°09' E 003°40'1 2.1
2018-Jun-08 07:30N 52°10' E 003°41'816.2
2018-Jun-08 07:00N 52°17' E 003°47'816.6
2018-Jun-08 06:30N 52°25' E 003°49'817.0
2018-Jun-08 06:00N 52°34' E 003°51'916.8
2018-Jun-08 05:30N 52°42' E 003°54'816.9
2018-Jun-08 05:00N 52°50' E 003°57'816.8
2018-Jun-08 04:30N 52°58' E 004°02'817.0
2018-Jun-08 04:00N 53°04' E 004°11'816.6
2018-Jun-08 03:30N 53°10' E 004°21'816.3
2018-Jun-08 03:00N 53°17' E 004°28'816.1
2018-Jun-08 02:30N 53°24' E 004°35'815.1
2018-Jun-08 02:00N 53°30' E 004°42'815.4
2018-Jun-08 01:31N 53°33' E 004°54'815.5
2018-Jun-08 01:00N 53°36' E 005°06'815.8
2018-Jun-08 00:30N 53°39' E 005°19'815.8
2018-Jun-08 00:00N 53°41' E 005°31'815.9
2018-Jun-07 23:30N 53°44' E 005°44'815.9
2018-Jun-07 23:00N 53°46' E 005°57'816.1
2018-Jun-07 22:29N 53°48' E 006°10'7216.9
2018-Jun-07 18:13N 54°00' E 008°11'313.3
2018-Jun-07 18:00N 53°60' E 008°16'816.9
2018-Jun-07 17:30N 53°58' E 008°30'714.7
2018-Jun-07 17:01N 53°55' E 008°41'612.3
2018-Jun-07 16:30N 53°50' E 008°49'612.9
2018-Jun-07 16:00N 53°51' E 008°59'612.0
2018-Jun-07 15:30N 53°53' E 009°09'611.2
2018-Jun-07 15:00N 53°51' E 009°18'714.4
2018-Jun-07 14:30N 53°45' E 009°24'713.5
2018-Jun-07 14:00N 53°40' E 009°31'713.6
2018-Jun-07 13:30N 53°35' E 009°38'613.0
2018-Jun-07 13:00N 53°33' E 009°49'4 6.7
2018-Jun-07 12:29N 53°32' E 009°55'0 0.0
2018-Jun-07 11:59N 53°32' E 009°55'0 0.0
2018-Jun-07 11:29N 53°32' E 009°55'0 0.0
2018-Jun-07 10:59N 53°32' E 009°55'0 0.0
2018-Jun-07 10:29N 53°32' E 009°55'0 0.0
2018-Jun-07 09:59N 53°32' E 009°55'0 0.0
2018-Jun-07 09:29N 53°32' E 009°55'0 0.0
2018-Jun-07 08:59N 53°32' E 009°55'0 0.0
2018-Jun-07 08:29N 53°32' E 009°55'0 0.0
2018-Jun-07 07:59N 53°32' E 009°55'0 0.0
2018-Jun-07 07:29N 53°32' E 009°55'0 0.0
2018-Jun-07 06:59N 53°32' E 009°55'0 0.0
2018-Jun-07 06:29N 53°32' E 009°55'0 0.0
2018-Jun-07 05:59N 53°32' E 009°55'0 0.0
2018-Jun-07 05:29N 53°32' E 009°55'0 0.6
2018-Jun-07 05:00N 53°32' E 009°55'2 4.4
2018-Jun-07 04:29N 53°32' E 009°59'0 0.0
2018-Jun-07 03:59N 53°32' E 009°59'0 0.0
2018-Jun-07 03:29N 53°32' E 009°59'0 0.0
2018-Jun-07 02:59N 53°32' E 009°59'0 0.0
2018-Jun-07 02:29N 53°32' E 009°59'0 0.0
2018-Jun-07 01:59N 53°32' E 009°59'0 0.0
2018-Jun-07 01:29N 53°32' E 009°59'0 0.0
2018-Jun-07 00:59N 53°32' E 009°59'0 0.0
2018-Jun-07 00:29N 53°32' E 009°59'0 0.0
2018-Jun-06 23:59N 53°32' E 009°59'0 0.0
2018-Jun-06 23:29N 53°32' E 009°59'  

Dump ship's entire track history